TAF Flughafenprognosen

Nürnberg TAF, ausgegeben Mi 08.02. 18:00

TAF EDDN 081700Z 0818/0918 08006KT CAVOK BECMG 0822/0824 14004KT TEMPO 0909/0918 22005KT
GültigkeitVonBisWind in Beaufort
(Knoten)
Wolken
(Meter über Grund)
Sichtweite
(Meter)
Wettererscheinung
Grundvorhersage Mi 08.02. 19:00 Do 09.02. 19:00 O 2 (6) Nicht signifikant >= 10000  
Übergang zu Mi 08.02. 23:00 Do 09.02. 01:00 SO 2 (4)      
Vorübergehend Do 09.02. 10:00 Do 09.02. 19:00 SW 2 (5)      

 

Hof TAF, ausgegeben Mi 08.02. 18:00

TAF EDQM 081700Z 0818/0903 14005KT CAVOK
GültigkeitVonBisWind in Beaufort
(Knoten)
Wolken
(Meter über Grund)
Sichtweite
(Meter)
Wettererscheinung
Grundvorhersage Mi 08.02. 19:00 Do 09.02. 04:00 SO 2 (5)      

 

Erfurt-Bindersleben TAF, ausgegeben Mi 08.02. 18:00

TAF EDDE 081700Z 0818/0918 09005KT CAVOK BECMG 0818/0820 20006KT
GültigkeitVonBisWind in Beaufort
(Knoten)
Wolken
(Meter über Grund)
Sichtweite
(Meter)
Wettererscheinung
Grundvorhersage Mi 08.02. 19:00 Do 09.02. 19:00 O 2 (5) Nicht signifikant >= 10000  
Übergang zu Mi 08.02. 19:00 Mi 08.02. 21:00 SSW 2 (6)      

 

Augsburg TAF, ausgegeben Mi 08.02. 18:00

TAF EDMA 081700Z 0818/0903 08004KT CAVOK PROB30 TEMPO 0900/0903 2000 BCFG
GültigkeitVonBisWind in Beaufort
(Knoten)
Wolken
(Meter über Grund)
Sichtweite
(Meter)
Wettererscheinung
Grundvorhersage Mi 08.02. 19:00 Do 09.02. 04:00 O 2 (4) Nicht signifikant >= 10000  
Vorübergehend
(Wahrscheinlichkeit 30 %)
Do 09.02. 01:00 Do 09.02. 04:00     2000 Nebel-Bänke

 

Frankfurt TAF, ausgegeben Mi 08.02. 18:00

TAF EDDF 081700Z 0818/0924 07008KT CAVOK TEMPO 0900/0905 VRB03KT BECMG 0905/0908 20004KT
GültigkeitVonBisWind in Beaufort
(Knoten)
Wolken
(Meter über Grund)
Sichtweite
(Meter)
Wettererscheinung
Grundvorhersage Mi 08.02. 19:00 Fr 10.02. 01:00 ONO 3 (8) Nicht signifikant >= 10000  
Vorübergehend Do 09.02. 01:00 Do 09.02. 06:00 Uml 2 (3)      
Übergang zu Do 09.02. 06:00 Do 09.02. 09:00 SSW 2 (4)      

 

Stuttgart TAF, ausgegeben Mi 08.02. 18:00

TAF EDDS 081700Z 0818/0918 10007KT CAVOK BECMG 0818/0821 VRB03KT
GültigkeitVonBisWind in Beaufort
(Knoten)
Wolken
(Meter über Grund)
Sichtweite
(Meter)
Wettererscheinung
Grundvorhersage Mi 08.02. 19:00 Do 09.02. 19:00 O 3 (7) Nicht signifikant >= 10000  
Übergang zu Mi 08.02. 19:00 Mi 08.02. 22:00 Uml 2 (3)      

 

München TAF, ausgegeben Mi 08.02. 20:07

TAF AMD EDDM 081907Z 0819/0924 08008KT CAVOK BECMG 0819/0821 VRB03KT PROB30 TEMPO 0901/0907 1200 BCFG
GültigkeitVonBisWind in Beaufort
(Knoten)
Wolken
(Meter über Grund)
Sichtweite
(Meter)
Wettererscheinung
Grundvorhersage Mi 08.02. 20:00 Fr 10.02. 01:00 O 3 (8) Nicht signifikant >= 10000  
Übergang zu Mi 08.02. 20:00 Mi 08.02. 22:00 Uml 2 (3)      
Vorübergehend
(Wahrscheinlichkeit 30 %)
Do 09.02. 02:00 Do 09.02. 08:00     1200 Nebel-Bänke